createdAt,value
2022-10-13T00:04:13.441Z,101554.06
2022-10-13T00:09:14.739Z,101546.41
2022-10-13T00:14:16.095Z,101553.38
2022-10-13T00:19:17.745Z,101556.44
2022-10-13T00:24:19.065Z,101561.94
2022-10-13T00:29:20.366Z,101558.91
2022-10-13T00:34:21.723Z,101548.88
2022-10-13T00:39:23.032Z,101541.69
2022-10-13T00:44:43.100Z,101545.31
2022-10-13T00:49:44.465Z,101544.09
2022-10-13T00:54:46.580Z,101545.47
2022-10-13T00:59:48.286Z,101543.13
2022-10-13T01:04:50.156Z,101535.31
2022-10-13T01:09:51.633Z,101543.75
2022-10-13T01:14:55.969Z,101540.75
2022-10-13T01:20:36.063Z,101530.34
2022-10-13T01:25:52.343Z,101511.78
2022-10-13T01:31:05.834Z,101506.72
2022-10-13T01:36:09.928Z,101507.69
2022-10-13T01:41:21.458Z,101492.75
2022-10-13T01:46:31.091Z,101488.41
2022-10-13T01:51:33.114Z,101481.56
2022-10-13T01:56:34.436Z,101481.56
2022-10-13T02:01:50.892Z,101473.63
2022-10-13T02:07:04.456Z,101473.47
2022-10-13T02:12:09.946Z,101470.84
2022-10-13T02:17:11.574Z,101464.72
2022-10-13T02:22:14.788Z,101457.22
2022-10-13T02:27:16.170Z,101450.06
2022-10-13T02:32:17.774Z,101454.66
2022-10-13T02:37:19.487Z,101448.25
2022-10-13T02:42:21.303Z,101450.69
2022-10-13T02:47:22.904Z,101448.25
2022-10-13T02:52:24.226Z,101454.09
2022-10-13T02:57:25.707Z,101465.78
2022-10-13T03:02:27.857Z,101459.09
2022-10-13T03:07:29.156Z,101467.09
2022-10-13T03:12:30.654Z,101460.44
2022-10-13T03:17:31.963Z,101470.84
2022-10-13T03:22:33.612Z,101468.69
2022-10-13T03:27:34.989Z,101469.38
2022-10-13T03:32:36.283Z,101470.16
2022-10-13T03:37:37.580Z,101471.28
2022-10-13T03:42:39.267Z,101471.78
2022-10-13T03:47:40.720Z,101464.97
2022-10-13T03:52:42.056Z,101454.09
2022-10-13T03:57:43.364Z,101445.38
2022-10-13T04:02:44.679Z,101423.28
2022-10-13T04:07:45.987Z,101420.81
2022-10-13T04:12:48.634Z,101404.47
2022-10-13T04:17:49.932Z,101415.03
2022-10-13T04:22:51.892Z,101410.13
2022-10-13T04:27:53.188Z,101405.69
2022-10-13T04:32:54.498Z,101399.31
2022-10-13T04:37:57.957Z,101396.53
2022-10-13T04:42:59.282Z,101392.78
2022-10-13T04:48:00.836Z,101393.41
2022-10-13T04:53:02.141Z,101397.41
2022-10-13T04:58:03.487Z,101386.63
2022-10-13T05:03:04.782Z,101387.00
2022-10-13T05:08:06.190Z,101380.53
2022-10-13T05:13:07.539Z,101382.31
2022-10-13T05:18:08.845Z,101387.78
2022-10-13T05:23:10.306Z,101390.63
2022-10-13T05:28:11.711Z,101385.41
2022-10-13T05:33:13.115Z,101381.66
2022-10-13T05:38:14.439Z,101380.38
2022-10-13T05:43:15.739Z,101373.88
2022-10-13T05:48:17.063Z,101372.72
2022-10-13T05:53:18.447Z,101391.78
2022-10-13T05:58:19.942Z,101354.47
2022-10-13T06:03:23.060Z,101349.09
2022-10-13T06:08:24.429Z,101357.56
2022-10-13T06:13:26.076Z,101356.56
2022-10-13T06:18:27.624Z,101374.03
2022-10-13T06:23:28.940Z,101366.38
2022-10-13T06:28:30.291Z,101369.31
2022-10-13T06:33:32.118Z,101356.94
2022-10-13T06:38:33.524Z,101354.16
2022-10-13T06:43:40.133Z,101354.28
2022-10-13T06:48:42.043Z,101363.97
2022-10-13T06:53:43.363Z,101349.47
2022-10-13T06:58:44.771Z,101357.22
2022-10-13T07:03:49.910Z,101358.13
2022-10-13T07:08:51.471Z,101347.91
2022-10-13T07:13:54.126Z,101354.41
2022-10-13T07:18:55.461Z,101348.50
2022-10-13T07:23:56.824Z,101352.88
2022-10-13T07:28:58.239Z,101353.63
2022-10-13T07:33:59.734Z,101355.13
2022-10-13T07:39:02.866Z,101355.78
2022-10-13T07:44:04.255Z,101353.72
2022-10-13T07:49:05.576Z,101357.34
2022-10-13T07:54:07.253Z,101347.56
2022-10-13T07:59:08.962Z,101346.69
2022-10-13T08:04:10.367Z,101352.25
2022-10-13T08:09:12.392Z,101352.66
2022-10-13T08:14:13.901Z,101352.09
2022-10-13T08:19:16.283Z,101342.09
2022-10-13T08:24:18.151Z,101340.09
2022-10-13T08:29:22.459Z,101326.03
2022-10-13T08:34:25.341Z,101327.75
2022-10-13T08:39:26.719Z,101318.53
2022-10-13T08:50:00.823Z,101324.25
2022-10-13T08:55:02.406Z,101323.03
2022-10-13T09:00:05.294Z,101311.69
2022-10-13T09:05:11.544Z,101304.81
2022-10-13T09:10:14.559Z,101308.06
2022-10-13T09:15:17.856Z,101307.16
2022-10-13T09:20:21.277Z,101305.66
2022-10-13T09:25:22.737Z,101308.34
2022-10-13T09:30:41.424Z,101298.09
2022-10-13T09:35:47.314Z,101280.81
2022-10-13T09:41:07.353Z,101289.69
2022-10-13T09:46:18.354Z,101292.72
2022-10-13T09:51:29.611Z,101295.75
2022-10-13T09:56:36.555Z,101295.72
2022-10-13T10:01:40.471Z,101303.91
2022-10-13T10:06:42.760Z,101299.25
2022-10-13T10:11:45.482Z,101286.38
2022-10-13T10:16:50.547Z,101287.47
2022-10-13T10:22:04.155Z,101290.09
2022-10-13T10:27:15.999Z,101278.19
2022-10-13T10:32:29.402Z,101280.19
2022-10-13T10:37:46.454Z,101272.44
2022-10-13T10:42:51.972Z,101262.22
2022-10-13T10:47:56.487Z,101242.41
2022-10-13T10:53:00.843Z,101240.38
2022-10-13T10:58:07.291Z,101233.41
2022-10-13T11:03:29.025Z,101232.22
2022-10-13T11:08:30.512Z,101216.84
2022-10-13T11:13:50.008Z,101208.31
2022-10-13T11:18:54.477Z,101206.22
2022-10-13T11:24:01.080Z,101199.09
2022-10-13T11:29:03.294Z,101197.50
2022-10-13T11:34:24.562Z,101194.91
2022-10-13T11:39:28.943Z,101187.16
2022-10-13T11:44:45.722Z,101179.34
2022-10-13T11:50:03.903Z,101171.41
2022-10-13T11:55:10.656Z,101170.75
2022-10-13T12:00:16.936Z,101166.91
2022-10-13T12:05:25.941Z,101163.13
2022-10-13T12:10:32.432Z,101157.78
2022-10-13T12:15:41.895Z,101146.28
2022-10-13T12:20:43.246Z,101148.03
2022-10-13T12:25:47.143Z,101145.22
2022-10-13T12:30:59.230Z,101139.59
2022-10-13T12:36:33.001Z,101139.28
2022-10-13T12:41:36.199Z,101143.66
2022-10-13T12:46:37.535Z,101132.66
2022-10-13T12:51:39.523Z,101127.75
2022-10-13T12:56:42.369Z,101129.22
2022-10-13T13:01:44.047Z,101132.72
2022-10-13T13:06:56.389Z,101120.22
2022-10-13T13:12:04.134Z,101112.22
2022-10-13T13:17:07.578Z,101127.53
2022-10-13T13:22:09.197Z,101133.47
2022-10-13T13:27:18.178Z,101133.84
2022-10-13T13:32:20.463Z,101130.91
2022-10-13T13:37:27.430Z,101134.16
2022-10-13T13:42:29.123Z,101129.16
2022-10-13T13:47:30.444Z,101125.25
2022-10-13T13:52:31.772Z,101122.19
2022-10-13T13:57:33.082Z,101128.03
2022-10-13T14:02:34.569Z,101111.47
2022-10-13T14:07:36.072Z,101118.84
2022-10-13T14:12:37.407Z,101103.56
2022-10-13T14:17:38.776Z,101103.81
2022-10-13T14:22:40.227Z,101101.84
2022-10-13T14:27:41.548Z,101102.78
2022-10-13T14:32:42.917Z,101095.06
2022-10-13T14:37:44.223Z,101098.09
2022-10-13T14:42:45.541Z,101086.19
2022-10-13T14:47:46.898Z,101087.22
2022-10-13T14:52:48.191Z,101083.53
2022-10-13T14:57:49.527Z,101081.25
2022-10-13T15:02:50.837Z,101081.28
2022-10-13T15:07:52.197Z,101079.31
2022-10-13T15:12:53.556Z,101087.88
2022-10-13T15:17:54.912Z,101080.06
2022-10-13T15:22:56.279Z,101089.63
2022-10-13T15:27:57.586Z,101089.66
2022-10-13T15:32:58.985Z,101079.56
2022-10-13T15:38:00.295Z,101072.28
2022-10-13T15:43:01.808Z,101082.41
2022-10-13T15:48:04.929Z,101082.44
2022-10-13T15:53:06.641Z,101078.88
2022-10-13T15:58:12.792Z,101076.69
2022-10-13T16:03:17.757Z,101070.03
2022-10-13T16:08:19.085Z,101071.06
2022-10-13T16:13:20.401Z,101069.84
2022-10-13T16:18:21.698Z,101056.50
2022-10-13T16:23:23.280Z,101049.47
2022-10-13T16:28:24.708Z,101058.72
2022-10-13T16:33:26.057Z,101052.50
2022-10-13T16:38:27.362Z,101059.97
2022-10-13T16:43:29.546Z,101065.22
2022-10-13T16:48:31.749Z,101058.16
2022-10-13T16:53:33.395Z,101060.38
2022-10-13T16:58:35.036Z,101065.41
2022-10-13T17:03:37.091Z,101063.19
2022-10-13T17:08:38.477Z,101071.06
2022-10-13T17:13:39.804Z,101067.63
2022-10-13T17:18:41.123Z,101070.63
2022-10-13T17:23:48.102Z,101074.47
2022-10-13T17:28:49.941Z,101070.03
2022-10-13T17:33:51.756Z,101081.31
2022-10-13T17:38:54.056Z,101082.13
2022-10-13T17:43:55.372Z,101079.28
2022-10-13T17:48:57.415Z,101072.44
2022-10-13T17:53:59.565Z,101082.13
2022-10-13T17:59:02.071Z,101089.59
2022-10-13T18:04:08.418Z,101086.19
2022-10-13T18:09:14.707Z,101090.00
2022-10-13T18:14:16.111Z,101091.81
2022-10-13T18:19:17.837Z,101093.81
2022-10-13T18:24:19.552Z,101088.38
2022-10-13T18:29:20.865Z,101095.00
2022-10-13T18:34:23.191Z,101091.78
2022-10-13T18:39:28.860Z,101100.66
2022-10-13T18:44:30.240Z,101101.06
2022-10-13T18:49:31.671Z,101102.25
2022-10-13T18:54:33.048Z,101098.59
2022-10-13T18:59:38.589Z,101098.81
2022-10-13T19:04:40.036Z,101105.66
2022-10-13T19:09:41.341Z,101106.66
2022-10-13T19:14:43.664Z,101115.13
2022-10-13T19:19:46.215Z,101118.16
2022-10-13T19:24:47.526Z,101114.28
2022-10-13T19:29:51.519Z,101115.06
2022-10-13T19:34:52.864Z,101126.53
2022-10-13T19:39:54.163Z,101122.72
2022-10-13T19:44:55.525Z,101122.69
2022-10-13T19:49:56.856Z,101121.50
2022-10-13T19:54:58.274Z,101132.56
2022-10-13T19:59:59.578Z,101121.13
2022-10-13T20:05:00.970Z,101120.31
2022-10-13T20:10:02.311Z,101117.91
2022-10-13T20:15:03.772Z,101112.66
2022-10-13T20:20:05.692Z,101120.16
2022-10-13T20:25:07.422Z,101117.94
2022-10-13T20:30:09.096Z,101122.13
2022-10-13T20:35:10.414Z,101129.78
2022-10-13T20:40:11.786Z,101132.38
2022-10-13T20:45:13.086Z,101136.00
2022-10-13T20:50:14.460Z,101139.84
2022-10-13T20:55:15.796Z,101133.72
2022-10-13T21:00:17.227Z,101133.28
2022-10-13T21:05:18.545Z,101141.13
2022-10-13T21:10:19.838Z,101129.22
2022-10-13T21:15:21.135Z,101134.53
2022-10-13T21:20:22.447Z,101138.38
2022-10-13T21:25:23.892Z,101126.69
2022-10-13T21:30:25.329Z,101129.28
2022-10-13T21:35:26.747Z,101132.09
2022-10-13T21:40:28.088Z,101131.03
2022-10-13T21:45:29.397Z,101125.38
2022-10-13T21:50:30.708Z,101125.81
2022-10-13T21:55:33.030Z,101121.75
2022-10-13T22:00:34.452Z,101125.19
2022-10-13T22:05:35.812Z,101123.03
2022-10-13T22:10:37.117Z,101122.44
2022-10-13T22:15:38.454Z,101133.41
2022-10-13T22:20:39.834Z,101131.97
2022-10-13T22:25:45.204Z,101123.56
2022-10-13T22:30:46.540Z,101116.94
2022-10-13T22:35:47.863Z,101110.03
2022-10-13T22:40:49.161Z,101112.41
2022-10-13T22:45:51.763Z,101109.00
2022-10-13T22:50:53.257Z,101101.53
2022-10-13T22:55:54.561Z,101103.53
2022-10-13T23:00:55.979Z,101100.34
2022-10-13T23:05:57.300Z,101092.06
2022-10-13T23:10:58.738Z,101095.50
2022-10-13T23:16:00.843Z,101093.09
2022-10-13T23:21:09.187Z,101091.47
2022-10-13T23:26:11.990Z,101089.66
2022-10-13T23:31:14.912Z,101089.84
2022-10-13T23:36:17.802Z,101086.66
2022-10-13T23:41:19.106Z,101087.06
2022-10-13T23:46:20.452Z,101087.47
2022-10-13T23:51:23.273Z,101081.66
2022-10-13T23:56:24.727Z,101078.63
